sensor_id;sensor_type;location;lat;lon;timestamp;pressure;altitude;pressure_sealevel;temperature;humidity
45467;BME280;31212;49.734;8.490;2022-08-01T00:01:22;100401.75;;;20.62;66.41
45467;BME280;31212;49.734;8.490;2022-08-01T00:03:49;100403.69;;;20.58;66.33
45467;BME280;31212;49.734;8.490;2022-08-01T00:06:17;100399.38;;;20.56;66.40
45467;BME280;31212;49.734;8.490;2022-08-01T00:08:43;100382.38;;;20.63;65.97
45467;BME280;31212;49.734;8.490;2022-08-01T00:11:10;100375.38;;;20.86;65.17
45467;BME280;31212;49.734;8.490;2022-08-01T00:13:37;100356.34;;;20.77;64.97
45467;BME280;31212;49.734;8.490;2022-08-01T04:15:56;100537.03;;;18.75;79.08
45467;BME280;31212;49.734;8.490;2022-08-01T04:30:29;100505.28;;;19.11;77.21
45467;BME280;31212;49.734;8.490;2022-08-01T04:32:59;100524.44;;;19.16;77.25
45467;BME280;31212;49.734;8.490;2022-08-01T04:35:26;100530.31;;;19.24;77.32
45467;BME280;31212;49.734;8.490;2022-08-01T04:37:55;100524.94;;;19.29;76.87
45467;BME280;31212;49.734;8.490;2022-08-01T04:40:23;100525.56;;;19.37;76.79
45467;BME280;31212;49.734;8.490;2022-08-01T04:42:51;100525.31;;;19.45;76.80
45467;BME280;31212;49.734;8.490;2022-08-01T04:45:18;100514.22;;;19.62;76.39
45467;BME280;31212;49.734;8.490;2022-08-01T04:47:46;100501.09;;;19.60;75.84
45467;BME280;31212;49.734;8.490;2022-08-01T04:50:13;100508.91;;;19.63;75.84
45467;BME280;31212;49.734;8.490;2022-08-01T04:52:39;100498.97;;;19.72;75.67
45467;BME280;31212;49.734;8.490;2022-08-01T04:55:08;100506.19;;;19.66;75.56
45467;BME280;31212;49.734;8.490;2022-08-01T04:57:37;100531.69;;;19.64;76.12
45467;BME280;31212;49.734;8.490;2022-08-01T05:00:05;100531.50;;;19.71;76.19
45467;BME280;31212;49.734;8.490;2022-08-01T05:02:32;100511.78;;;19.84;75.45
45467;BME280;31212;49.734;8.490;2022-08-01T05:05:00;100493.06;;;19.92;74.98
45467;BME280;31212;49.734;8.490;2022-08-01T05:07:26;100483.81;;;20.05;74.24
45467;BME280;31212;49.734;8.490;2022-08-01T05:09:53;100479.78;;;20.20;73.68
45467;BME280;31212;49.734;8.490;2022-08-01T05:12:20;100465.34;;;20.30;73.32
45467;BME280;31212;49.734;8.490;2022-08-01T05:14:46;100467.03;;;20.33;73.25
45467;BME280;31212;49.734;8.490;2022-08-01T05:17:13;100461.88;;;20.30;72.92
45467;BME280;31212;49.734;8.490;2022-08-01T05:19:40;100464.53;;;20.28;73.01
45467;BME280;31212;49.734;8.490;2022-08-01T05:22:10;100470.34;;;20.38;72.91
45467;BME280;31212;49.734;8.490;2022-08-01T05:24:37;100457.41;;;20.56;72.30
45467;BME280;31212;49.734;8.490;2022-08-01T05:27:04;100437.59;;;20.91;71.46
45467;BME280;31212;49.734;8.490;2022-08-01T05:29:31;100427.97;;;21.12;70.60
45467;BME280;31212;49.734;8.490;2022-08-01T05:31:58;100402.19;;;21.19;69.78
45467;BME280;31212;49.734;8.490;2022-08-01T05:34:25;100413.13;;;21.10;69.83
45467;BME280;31212;49.734;8.490;2022-08-01T05:36:52;100431.06;;;21.00;70.21
45467;BME280;31212;49.734;8.490;2022-08-01T05:39:20;100451.09;;;20.83;70.56
45467;BME280;31212;49.734;8.490;2022-08-01T05:41:46;100455.63;;;20.80;70.86
45467;BME280;31212;49.734;8.490;2022-08-01T05:44:12;100465.25;;;20.81;71.01
45467;BME280;31212;49.734;8.490;2022-08-01T05:46:39;100470.19;;;20.90;71.12
45467;BME280;31212;49.734;8.490;2022-08-01T05:49:05;100453.28;;;20.94;70.74
45467;BME280;31212;49.734;8.490;2022-08-01T05:51:32;100445.69;;;21.09;70.35
45467;BME280;31212;49.734;8.490;2022-08-01T05:53:59;100435.38;;;21.25;69.91
45467;BME280;31212;49.734;8.490;2022-08-01T05:56:27;100420.56;;;21.43;68.98
45467;BME280;31212;49.734;8.490;2022-08-01T05:58:53;100402.16;;;21.62;68.54
45467;BME280;31212;49.734;8.490;2022-08-01T06:01:20;100371.72;;;21.74;67.22
45467;BME280;31212;49.734;8.490;2022-08-01T06:03:46;100389.66;;;21.86;66.97
45467;BME280;31212;49.734;8.490;2022-08-01T06:06:13;100373.13;;;22.01;66.55
45467;BME280;31212;49.734;8.490;2022-08-01T06:08:40;100365.91;;;22.05;66.61
45467;BME280;31212;49.734;8.490;2022-08-01T06:11:07;100372.34;;;22.18;66.30
45467;BME280;31212;49.734;8.490;2022-08-01T06:13:35;100364.53;;;22.36;65.99
45467;BME280;31212;49.734;8.490;2022-08-01T06:16:01;100350.75;;;22.85;65.08
45467;BME280;31212;49.734;8.490;2022-08-01T06:18:28;100293.22;;;23.24;63.00
45467;BME280;31212;49.734;8.490;2022-08-01T06:20:54;100288.00;;;23.22;62.69
45467;BME280;31212;49.734;8.490;2022-08-01T06:23:21;100287.00;;;23.25;62.79
45467;BME280;31212;49.734;8.490;2022-08-01T06:25:47;100287.28;;;23.36;62.53
45467;BME280;31212;49.734;8.490;2022-08-01T06:28:14;100299.75;;;23.51;62.49
45467;BME280;31212;49.734;8.490;2022-08-01T06:30:41;100282.31;;;23.47;61.89
45467;BME280;31212;49.734;8.490;2022-08-01T06:33:08;100274.00;;;23.38;61.78
45467;BME280;31212;49.734;8.490;2022-08-01T06:35:35;100280.91;;;23.40;61.61
45467;BME280;31212;49.734;8.490;2022-08-01T06:38:02;100282.13;;;23.50;61.35
45467;BME280;31212;49.734;8.490;2022-08-01T06:40:28;100298.19;;;23.47;61.79
45467;BME280;31212;49.734;8.490;2022-08-01T06:42:55;100297.84;;;23.38;62.11
45467;BME280;31212;49.734;8.490;2022-08-01T06:45:21;100302.97;;;23.41;61.67
45467;BME280;31212;49.734;8.490;2022-08-01T06:47:51;100296.94;;;23.55;61.50
45467;BME280;31212;49.734;8.490;2022-08-01T06:50:18;100278.22;;;24.07;60.38
45467;BME280;31212;49.734;8.490;2022-08-01T06:52:44;100205.38;;;24.75;57.98
45467;BME280;31212;49.734;8.490;2022-08-01T06:55:11;100199.41;;;25.31;57.31
45467;BME280;31212;49.734;8.490;2022-08-01T06:57:45;100127.28;;;26.06;54.79
45467;BME280;31212;49.734;8.490;2022-08-01T07:00:12;100108.28;;;26.12;54.14
45467;BME280;31212;49.734;8.490;2022-08-01T07:02:39;100128.47;;;25.60;54.65
45467;BME280;31212;49.734;8.490;2022-08-01T07:05:08;100186.94;;;25.31;56.33
45467;BME280;31212;49.734;8.490;2022-08-01T07:07:34;100203.66;;;25.19;56.48
45467;BME280;31212;49.734;8.490;2022-08-01T07:10:01;100204.78;;;25.15;56.52
45467;BME280;31212;49.734;8.490;2022-08-01T07:12:28;100212.00;;;25.13;56.46
45467;BME280;31212;49.734;8.490;2022-08-01T07:14:54;100221.84;;;24.96;57.04
45467;BME280;31212;49.734;8.490;2022-08-01T07:17:21;100214.25;;;24.90;56.74
45467;BME280;31212;49.734;8.490;2022-08-01T07:19:47;100208.53;;;24.82;56.82
45467;BME280;31212;49.734;8.490;2022-08-01T07:22:15;100219.56;;;24.90;56.93
45467;BME280;31212;49.734;8.490;2022-08-01T07:24:42;100225.44;;;24.95;57.34
45467;BME280;31212;49.734;8.490;2022-08-01T07:27:08;100219.59;;;25.19;56.79
45467;BME280;31212;49.734;8.490;2022-08-01T07:29:35;100169.09;;;25.77;55.19
45467;BME280;31212;49.734;8.490;2022-08-01T07:32:01;100118.97;;;26.25;53.52
45467;BME280;31212;49.734;8.490;2022-08-01T07:34:28;100108.16;;;26.80;53.21
45467;BME280;31212;49.734;8.490;2022-08-01T07:36:54;100016.38;;;28.07;49.75
45467;BME280;31212;49.734;8.490;2022-08-01T07:39:22;99949.84;;;29.70;46.93
45467;BME280;31212;49.734;8.490;2022-08-01T07:41:49;99827.50;;;30.44;43.78
45467;BME280;31212;49.734;8.490;2022-08-01T07:44:15;99825.78;;;31.80;42.01
45467;BME280;31212;49.734;8.490;2022-08-01T07:46:42;99782.72;;;31.72;40.80
45467;BME280;31212;49.734;8.490;2022-08-01T07:49:08;99826.47;;;32.20;40.96
45467;BME280;31212;49.734;8.490;2022-08-01T07:51:34;99764.56;;;32.94;39.07
45467;BME280;31212;49.734;8.490;2022-08-01T07:54:01;99743.00;;;32.03;39.09
45467;BME280;31212;49.734;8.490;2022-08-01T07:56:29;99796.25;;;30.84;41.20
45467;BME280;31212;49.734;8.490;2022-08-01T07:58:55;99895.97;;;29.75;43.49
45467;BME280;31212;49.734;8.490;2022-08-01T08:01:22;99932.19;;;28.82;45.07
45467;BME280;31212;49.734;8.490;2022-08-01T08:03:48;99960.81;;;28.57;45.83
45467;BME280;31212;49.734;8.490;2022-08-01T08:06:15;99947.00;;;28.63;45.57
45467;BME280;31212;49.734;8.490;2022-08-01T08:08:41;99988.66;;;28.77;46.10
45467;BME280;31212;49.734;8.490;2022-08-01T08:11:07;99970.78;;;28.89;45.87
45467;BME280;31212;49.734;8.490;2022-08-01T08:13:35;100004.91;;;28.51;46.64
45467;BME280;31212;49.734;8.490;2022-08-01T08:16:02;99997.25;;;28.58;46.45
45467;BME280;31212;49.734;8.490;2022-08-01T08:18:28;100027.00;;;28.53;47.14
45467;BME280;31212;49.734;8.490;2022-08-01T08:20:55;100044.53;;;28.11;47.41
45467;BME280;31212;49.734;8.490;2022-08-01T08:23:21;100002.63;;;28.81;46.15
45467;BME280;31212;49.734;8.490;2022-08-01T08:26:06;100003.63;;;27.75;47.31
45467;BME280;31212;49.734;8.490;2022-08-01T08:28:32;99967.03;;;28.58;45.65
45467;BME280;31212;49.734;8.490;2022-08-01T08:31:00;100002.94;;;30.29;44.96
45467;BME280;31212;49.734;8.490;2022-08-01T08:33:27;99950.59;;;30.46;43.40
45467;BME280;31212;49.734;8.490;2022-08-01T08:35:53;99879.03;;;30.58;41.62
45467;BME280;31212;49.734;8.490;2022-08-01T08:38:20;99900.44;;;29.00;43.83
45467;BME280;31212;49.734;8.490;2022-08-01T08:40:47;99935.44;;;30.76;42.54
45467;BME280;31212;49.734;8.490;2022-08-01T08:43:15;99895.28;;;30.85;41.91
45467;BME280;31212;49.734;8.490;2022-08-01T08:45:43;99921.59;;;29.78;43.66
45467;BME280;31212;49.734;8.490;2022-08-01T08:48:12;99941.03;;;28.82;44.56
45467;BME280;31212;49.734;8.490;2022-08-01T08:50:40;99951.03;;;28.24;45.65
45467;BME280;31212;49.734;8.490;2022-08-01T08:53:09;99986.94;;;28.19;46.11
45467;BME280;31212;49.734;8.490;2022-08-01T08:55:36;100001.69;;;28.12;46.61
45467;BME280;31212;49.734;8.490;2022-08-01T08:58:04;99995.72;;;28.67;45.85
45467;BME280;31212;49.734;8.490;2022-08-01T09:00:31;99955.78;;;29.74;43.94
45467;BME280;31212;49.734;8.490;2022-08-01T09:02:58;99939.09;;;29.61;44.04
45467;BME280;31212;49.734;8.490;2022-08-01T09:05:26;99906.41;;;28.92;44.40
45467;BME280;31212;49.734;8.490;2022-08-01T09:07:52;99979.91;;;28.75;45.48
45467;BME280;31212;49.734;8.490;2022-08-01T09:10:19;99992.88;;;28.34;46.09
45467;BME280;31212;49.734;8.490;2022-08-01T09:13:02;100024.38;;;27.82;47.33
45467;BME280;31212;49.734;8.490;2022-08-01T09:15:38;100023.47;;;27.59;47.60
45467;BME280;31212;49.734;8.490;2022-08-01T09:18:05;100063.78;;;27.05;48.84
45467;BME280;31212;49.734;8.490;2022-08-01T09:20:33;100085.88;;;26.55;50.27
45467;BME280;31212;49.734;8.490;2022-08-01T09:23:01;100144.41;;;26.42;51.23
45467;BME280;31212;49.734;8.490;2022-08-01T09:25:27;100156.06;;;26.54;50.97
45467;BME280;31212;49.734;8.490;2022-08-01T09:28:03;100157.81;;;26.81;51.25
45467;BME280;31212;49.734;8.490;2022-08-01T09:30:36;100158.72;;;27.31;50.27
45467;BME280;31212;49.734;8.490;2022-08-01T09:33:05;100112.97;;;27.50;48.96
45467;BME280;31212;49.734;8.490;2022-08-01T09:35:35;100137.28;;;27.83;49.25
45467;BME280;31212;49.734;8.490;2022-08-01T09:38:12;100086.03;;;27.29;48.53
45467;BME280;31212;49.734;8.490;2022-08-01T09:40:46;100109.78;;;27.94;48.45
45467;BME280;31212;49.734;8.490;2022-08-01T09:43:13;100077.06;;;28.27;47.27
45467;BME280;31212;49.734;8.490;2022-08-01T09:45:40;100075.34;;;28.26;47.19
45467;BME280;31212;49.734;8.490;2022-08-01T09:48:08;100042.66;;;28.92;45.76
45467;BME280;31212;49.734;8.490;2022-08-01T09:50:43;100043.91;;;28.99;45.99
45467;BME280;31212;49.734;8.490;2022-08-01T09:53:10;100042.50;;;29.72;45.53
45467;BME280;31212;49.734;8.490;2022-08-01T09:55:37;100002.72;;;30.20;44.26
45467;BME280;31212;49.734;8.490;2022-08-01T09:58:04;100000.97;;;30.31;44.13
45467;BME280;31212;49.734;8.490;2022-08-01T10:00:31;99989.03;;;30.66;43.41
45467;BME280;31212;49.734;8.490;2022-08-01T10:02:58;99961.13;;;30.16;43.40
45467;BME280;31212;49.734;8.490;2022-08-01T10:05:32;99967.50;;;30.15;43.62
45467;BME280;31212;49.734;8.490;2022-08-01T10:08:02;99956.78;;;29.52;44.16
45467;BME280;31212;49.734;8.490;2022-08-01T10:10:30;99952.75;;;29.46;44.12
45467;BME280;31212;49.734;8.490;2022-08-01T10:12:59;99956.88;;;29.29;44.42
45467;BME280;31212;49.734;8.490;2022-08-01T10:15:26;99955.19;;;29.17;44.53
45467;BME280;31212;49.734;8.490;2022-08-01T10:17:54;99964.69;;;29.96;43.76
45467;BME280;31212;49.734;8.490;2022-08-01T10:20:24;99946.09;;;30.97;42.05
45467;BME280;31212;49.734;8.490;2022-08-01T10:22:52;99848.28;;;32.35;39.29
45467;BME280;31212;49.734;8.490;2022-08-01T10:25:21;99759.75;;;31.87;38.15
45467;BME280;31212;49.734;8.490;2022-08-01T10:27:49;99734.22;;;33.01;36.85
45467;BME280;31212;49.734;8.490;2022-08-01T10:30:17;99751.84;;;33.04;37.20
45467;BME280;31212;49.734;8.490;2022-08-01T10:32:45;99758.56;;;32.28;38.05
45467;BME280;31212;49.734;8.490;2022-08-01T10:35:12;99774.56;;;31.54;38.81
45467;BME280;31212;49.734;8.490;2022-08-01T10:37:43;99849.84;;;30.64;41.35
45467;BME280;31212;49.734;8.490;2022-08-01T10:40:11;99875.53;;;30.26;41.64
45467;BME280;31212;49.734;8.490;2022-08-01T10:42:41;99889.94;;;30.04;42.12
45467;BME280;31212;49.734;8.490;2022-08-01T10:45:09;99927.91;;;29.23;44.12
45467;BME280;31212;49.734;8.490;2022-08-01T10:47:41;99967.28;;;28.77;44.99
45467;BME280;31212;49.734;8.490;2022-08-01T10:50:13;99991.53;;;28.29;45.96
45467;BME280;31212;49.734;8.490;2022-08-01T10:53:11;100008.06;;;27.98;46.54
45467;BME280;31212;49.734;8.490;2022-08-01T10:55:49;100032.03;;;27.87;47.61
45467;BME280;31212;49.734;8.490;2022-08-01T10:58:25;100068.53;;;27.86;47.98
45467;BME280;31212;49.734;8.490;2022-08-01T11:01:14;100049.75;;;27.88;47.67
45467;BME280;31212;49.734;8.490;2022-08-01T11:03:43;100039.47;;;29.76;45.26
45467;BME280;31212;49.734;8.490;2022-08-01T11:06:16;100001.31;;;31.09;43.55
45467;BME280;31212;49.734;8.490;2022-08-01T11:08:51;99974.34;;;33.48;41.02
45467;BME280;31212;49.734;8.490;2022-08-01T11:11:18;99745.28;;;35.19;35.51
45467;BME280;31212;49.734;8.490;2022-08-01T11:14:03;99643.22;;;34.33;35.03
45467;BME280;31212;49.734;8.490;2022-08-01T11:16:36;99745.69;;;33.12;37.54
45467;BME280;31212;49.734;8.490;2022-08-01T11:19:04;99744.09;;;33.80;36.75
45467;BME280;31212;49.734;8.490;2022-08-01T11:21:59;99642.78;;;35.11;33.93
45467;BME280;31212;49.734;8.490;2022-08-01T11:24:54;99568.16;;;36.12;31.97
45467;BME280;31212;49.734;8.490;2022-08-01T11:27:24;99558.06;;;35.60;31.85
45467;BME280;31212;49.734;8.490;2022-08-01T11:32:50;99654.66;;;34.52;34.07
45467;BME280;31212;49.734;8.490;2022-08-01T11:35:17;99687.75;;;33.86;35.66
45467;BME280;31212;49.734;8.490;2022-08-01T11:37:46;99665.50;;;32.81;36.34
45467;BME280;31212;49.734;8.490;2022-08-01T11:40:17;99762.38;;;31.97;38.13
45467;BME280;31212;49.734;8.490;2022-08-01T11:42:43;99733.78;;;31.88;38.34
45467;BME280;31212;49.734;8.490;2022-08-01T11:45:10;99763.00;;;32.19;38.38
45467;BME280;31212;49.734;8.490;2022-08-01T11:47:43;99687.59;;;32.02;37.37
45467;BME280;31212;49.734;8.490;2022-08-01T11:50:33;99681.66;;;32.09;37.04
45467;BME280;31212;49.734;8.490;2022-08-01T11:53:02;99701.66;;;31.96;37.40
45467;BME280;31212;49.734;8.490;2022-08-01T11:55:30;99687.91;;;32.27;37.16
45467;BME280;31212;49.734;8.490;2022-08-01T11:58:02;99756.03;;;31.98;38.71
45467;BME280;31212;49.734;8.490;2022-08-01T12:00:29;99737.72;;;31.84;38.40
45467;BME280;31212;49.734;8.490;2022-08-01T12:02:57;99727.28;;;31.53;38.70
45467;BME280;31212;49.734;8.490;2022-08-01T12:05:26;99711.03;;;30.97;39.11
45467;BME280;31212;49.734;8.490;2022-08-01T12:07:55;99787.25;;;30.65;40.13
45467;BME280;31212;49.734;8.490;2022-08-01T12:10:24;99819.34;;;29.95;41.62
45467;BME280;31212;49.734;8.490;2022-08-01T12:12:52;99821.69;;;29.89;41.50
45467;BME280;31212;49.734;8.490;2022-08-01T12:15:20;99841.59;;;29.96;42.00
45467;BME280;31212;49.734;8.490;2022-08-01T12:17:48;99811.94;;;30.18;41.21
45467;BME280;31212;49.734;8.490;2022-08-01T12:20:19;99861.00;;;30.89;40.88
45467;BME280;31212;49.734;8.490;2022-08-01T12:22:46;99816.78;;;31.62;39.68
45467;BME280;31212;49.734;8.490;2022-08-01T12:25:15;99773.38;;;32.04;38.70
45467;BME280;31212;49.734;8.490;2022-08-01T12:27:43;99733.66;;;32.08;38.02
45467;BME280;31212;49.734;8.490;2022-08-01T12:30:12;99739.69;;;32.19;37.96
45467;BME280;31212;49.734;8.490;2022-08-01T12:32:40;99730.09;;;32.35;37.47
45467;BME280;31212;49.734;8.490;2022-08-01T12:35:09;99714.38;;;32.22;37.31
45467;BME280;31212;49.734;8.490;2022-08-01T12:37:37;99703.94;;;31.91;37.71
45467;BME280;31212;49.734;8.490;2022-08-01T12:40:16;99745.81;;;31.46;39.16
45467;BME280;31212;49.734;8.490;2022-08-01T12:42:45;99696.41;;;31.39;38.24
45467;BME280;31212;49.734;8.490;2022-08-01T12:45:15;99728.00;;;31.45;38.25
45467;BME280;31212;49.734;8.490;2022-08-01T12:47:42;99731.09;;;31.50;38.61
45467;BME280;31212;49.734;8.490;2022-08-01T12:50:11;99732.31;;;31.66;38.25
45467;BME280;31212;49.734;8.490;2022-08-01T12:52:38;99747.63;;;31.83;38.18
45467;BME280;31212;49.734;8.490;2022-08-01T12:55:09;99714.13;;;31.87;37.84
45467;BME280;31212;49.734;8.490;2022-08-01T12:57:39;99715.91;;;31.97;37.88
45467;BME280;31212;49.734;8.490;2022-08-01T13:00:09;99721.19;;;32.52;37.46
45467;BME280;31212;49.734;8.490;2022-08-01T13:02:37;99715.31;;;32.93;36.91
45467;BME280;31212;49.734;8.490;2022-08-01T13:05:05;99665.31;;;32.20;36.63
45467;BME280;31212;49.734;8.490;2022-08-01T13:07:38;99716.13;;;32.31;37.78
45467;BME280;31212;49.734;8.490;2022-08-01T13:10:05;99668.06;;;31.92;37.45
45467;BME280;31212;49.734;8.490;2022-08-01T13:12:32;99665.44;;;32.00;37.07
45467;BME280;31212;49.734;8.490;2022-08-01T13:15:20;99662.50;;;31.76;37.25
45467;BME280;31212;49.734;8.490;2022-08-01T13:17:47;99659.13;;;31.74;37.53
45467;BME280;31212;49.734;8.490;2022-08-01T13:20:24;99749.81;;;31.23;39.52
45467;BME280;31212;49.734;8.490;2022-08-01T13:22:51;99703.31;;;30.65;39.33
45467;BME280;31212;49.734;8.490;2022-08-01T13:25:18;99723.34;;;30.70;39.24
45467;BME280;31212;49.734;8.490;2022-08-01T13:27:45;99745.19;;;30.76;39.59
45467;BME280;31212;49.734;8.490;2022-08-01T13:30:14;99743.25;;;30.78;39.35
45467;BME280;31212;49.734;8.490;2022-08-01T13:32:42;99770.16;;;30.47;40.52
45467;BME280;31212;49.734;8.490;2022-08-01T13:35:10;99743.31;;;30.27;39.76
45467;BME280;31212;49.734;8.490;2022-08-01T13:37:39;99804.69;;;30.50;41.22
45467;BME280;31212;49.734;8.490;2022-08-01T13:40:08;99801.09;;;30.20;41.05
45467;BME280;31212;49.734;8.490;2022-08-01T13:42:35;99787.69;;;30.10;41.21
45467;BME280;31212;49.734;8.490;2022-08-01T13:45:02;99791.78;;;30.14;40.99
45467;BME280;31212;49.734;8.490;2022-08-01T13:47:31;99775.66;;;30.45;40.16
45467;BME280;31212;49.734;8.490;2022-08-01T13:49:58;99793.56;;;30.84;40.59
45467;BME280;31212;49.734;8.490;2022-08-01T13:52:25;99788.94;;;31.15;40.02
45467;BME280;31212;49.734;8.490;2022-08-01T13:54:52;99779.34;;;31.70;39.58
45467;BME280;31212;49.734;8.490;2022-08-01T13:57:18;99743.06;;;31.56;38.83
45467;BME280;31212;49.734;8.490;2022-08-01T13:59:45;99799.19;;;31.87;39.43
45467;BME280;31212;49.734;8.490;2022-08-01T14:02:12;99730.63;;;31.93;38.55
45467;BME280;31212;49.734;8.490;2022-08-01T14:04:40;99715.13;;;32.32;37.56
45467;BME280;31212;49.734;8.490;2022-08-01T14:07:07;99697.84;;;32.35;37.61
45467;BME280;31212;49.734;8.490;2022-08-01T14:09:33;99735.59;;;31.87;39.00
45467;BME280;31212;49.734;8.490;2022-08-01T14:12:00;99710.44;;;31.61;38.63
45467;BME280;31212;49.734;8.490;2022-08-01T14:14:26;99739.47;;;31.75;38.70
45467;BME280;31212;49.734;8.490;2022-08-01T14:16:53;99676.44;;;31.61;38.09
45467;BME280;31212;49.734;8.490;2022-08-01T14:19:19;99765.72;;;31.44;39.70
45467;BME280;31212;49.734;8.490;2022-08-01T14:21:47;99737.72;;;30.89;39.98
45467;BME280;31212;49.734;8.490;2022-08-01T14:24:14;99763.25;;;30.54;40.75
45467;BME280;31212;49.734;8.490;2022-08-01T14:26:40;99732.88;;;30.14;40.29
45467;BME280;31212;49.734;8.490;2022-08-01T14:29:07;99777.28;;;30.36;40.79
45467;BME280;31212;49.734;8.490;2022-08-01T14:31:33;99832.59;;;30.07;42.13
45467;BME280;31212;49.734;8.490;2022-08-01T14:34:00;99797.94;;;29.95;41.41
45467;BME280;31212;49.734;8.490;2022-08-01T14:36:26;99798.31;;;29.91;41.84
45467;BME280;31212;49.734;8.490;2022-08-01T14:38:54;99781.59;;;29.98;41.21
45467;BME280;31212;49.734;8.490;2022-08-01T14:41:21;99757.16;;;29.82;40.86
45467;BME280;31212;49.734;8.490;2022-08-01T14:43:47;99747.75;;;29.88;40.64
45467;BME280;31212;49.734;8.490;2022-08-01T14:46:14;99762.72;;;30.00;41.09
45467;BME280;31212;49.734;8.490;2022-08-01T14:48:40;99733.19;;;30.21;40.26
45467;BME280;31212;49.734;8.490;2022-08-01T14:51:07;99729.47;;;30.02;39.92
45467;BME280;31212;49.734;8.490;2022-08-01T14:53:34;99712.31;;;30.15;39.60
45467;BME280;31212;49.734;8.490;2022-08-01T14:56:03;99715.16;;;30.43;39.36
45467;BME280;31212;49.734;8.490;2022-08-01T14:58:29;99685.81;;;30.70;38.52
45467;BME280;31212;49.734;8.490;2022-08-01T15:00:56;99698.22;;;30.81;38.66
45467;BME280;31212;49.734;8.490;2022-08-01T15:03:22;99715.16;;;30.62;39.29
45467;BME280;31212;49.734;8.490;2022-08-01T15:05:49;99736.22;;;30.57;39.80
45467;BME280;31212;49.734;8.490;2022-08-01T15:08:16;99715.75;;;30.46;39.73
45467;BME280;31212;49.734;8.490;2022-08-01T15:10:42;99710.34;;;30.36;39.64
45467;BME280;31212;49.734;8.490;2022-08-01T15:13:10;99764.66;;;30.48;40.44
45467;BME280;31212;49.734;8.490;2022-08-01T15:15:36;99751.78;;;30.32;40.33
45467;BME280;31212;49.734;8.490;2022-08-01T15:18:03;99767.84;;;30.32;40.71
45467;BME280;31212;49.734;8.490;2022-08-01T15:20:30;99734.44;;;30.27;39.77
45467;BME280;31212;49.734;8.490;2022-08-01T15:22:58;99755.97;;;30.06;40.51
45467;BME280;31212;49.734;8.490;2022-08-01T15:25:24;99758.72;;;29.84;40.85
45467;BME280;31212;49.734;8.490;2022-08-01T15:27:51;99748.88;;;29.95;40.80
45467;BME280;31212;49.734;8.490;2022-08-01T15:30:18;99752.88;;;30.00;40.62
45467;BME280;31212;49.734;8.490;2022-08-01T15:32:45;99757.06;;;29.93;41.00
45467;BME280;31212;49.734;8.490;2022-08-01T15:35:11;99716.47;;;29.88;40.17
45467;BME280;31212;49.734;8.490;2022-08-01T15:37:38;99768.66;;;29.73;40.92
45467;BME280;31212;49.734;8.490;2022-08-01T15:40:05;99773.84;;;29.64;41.46
45467;BME280;31212;49.734;8.490;2022-08-01T15:42:31;99797.34;;;29.70;41.67
45467;BME280;31212;49.734;8.490;2022-08-01T15:44:58;99784.34;;;29.56;41.51
45467;BME280;31212;49.734;8.490;2022-08-01T15:47:26;99841.81;;;29.19;42.94
45467;BME280;31212;49.734;8.490;2022-08-01T15:49:52;99879.53;;;29.05;43.88
45467;BME280;31212;49.734;8.490;2022-08-01T15:52:20;99912.56;;;29.04;44.42
45467;BME280;31212;49.734;8.490;2022-08-01T15:54:47;99941.66;;;28.75;45.20
45467;BME280;31212;49.734;8.490;2022-08-01T15:57:13;99965.31;;;28.57;46.08
45467;BME280;31212;49.734;8.490;2022-08-01T15:59:40;99964.97;;;28.39;46.16
45467;BME280;31212;49.734;8.490;2022-08-01T16:02:06;99994.44;;;28.26;47.09
45467;BME280;31212;49.734;8.490;2022-08-01T16:04:34;100007.31;;;27.96;47.51
45467;BME280;31212;49.734;8.490;2022-08-01T16:07:01;100033.88;;;27.62;48.22
45467;BME280;31212;49.734;8.490;2022-08-01T16:09:27;100031.09;;;27.40;48.55
45467;BME280;31212;49.734;8.490;2022-08-01T16:11:53;100029.78;;;27.21;48.62
45467;BME280;31212;49.734;8.490;2022-08-01T16:14:20;100046.75;;;27.07;48.70
45467;BME280;31212;49.734;8.490;2022-08-01T16:16:46;100037.09;;;26.93;48.89
45467;BME280;31212;49.734;8.490;2022-08-01T16:19:14;100027.13;;;26.71;49.10
45467;BME280;31212;49.734;8.490;2022-08-01T16:21:42;100033.16;;;26.47;49.41
45467;BME280;31212;49.734;8.490;2022-08-01T16:24:08;100054.56;;;26.20;49.80
45467;BME280;31212;49.734;8.490;2022-08-01T16:26:35;100113.03;;;25.80;51.96
45467;BME280;31212;49.734;8.490;2022-08-01T16:29:01;100137.22;;;25.90;52.31
45467;BME280;31212;49.734;8.490;2022-08-01T16:31:28;100165.72;;;25.88;52.97
45467;BME280;31212;49.734;8.490;2022-08-01T16:33:55;100162.75;;;25.50;53.22
45467;BME280;31212;49.734;8.490;2022-08-01T16:36:21;100188.66;;;25.18;54.67
45467;BME280;31212;49.734;8.490;2022-08-01T16:38:49;100217.41;;;25.26;55.09
45467;BME280;31212;49.734;8.490;2022-08-01T16:41:15;100228.31;;;25.07;55.54
45467;BME280;31212;49.734;8.490;2022-08-01T16:43:42;100248.59;;;24.93;56.19
45467;BME280;31212;49.734;8.490;2022-08-01T16:46:08;100226.94;;;24.85;56.01
45467;BME280;31212;49.734;8.490;2022-08-01T16:48:35;100253.94;;;24.77;57.03
45467;BME280;31212;49.734;8.490;2022-08-01T16:51:01;100248.84;;;24.42;57.38
45467;BME280;31212;49.734;8.490;2022-08-01T16:53:28;100254.00;;;24.29;57.82
45467;BME280;31212;49.734;8.490;2022-08-01T16:55:56;100244.84;;;24.35;57.46
45467;BME280;31212;49.734;8.490;2022-08-01T16:58:22;100236.81;;;24.37;57.40
45467;BME280;31212;49.734;8.490;2022-08-01T17:00:49;100266.75;;;24.39;58.14
45467;BME280;31212;49.734;8.490;2022-08-01T17:03:17;100265.13;;;24.36;58.20
45467;BME280;31212;49.734;8.490;2022-08-01T17:05:44;100237.16;;;24.14;57.92
45467;BME280;31212;49.734;8.490;2022-08-01T17:08:11;100245.47;;;24.24;57.76
45467;BME280;31212;49.734;8.490;2022-08-01T17:10:38;100255.13;;;24.25;58.29
45467;BME280;31212;49.734;8.490;2022-08-01T17:13:06;100229.47;;;24.26;57.44
45467;BME280;31212;49.734;8.490;2022-08-01T17:15:32;100237.22;;;24.29;57.48